Time;durP1;ratioP1;P1;durP2;ratioP2;P2;SDS_P1;SDS_P2;PMS_P1;PMS_P2;Temp;Humidity;BMP_temperature;BMP_pressure;BME280_temperature;BME280_humidity;BME280_pressure;Samples;Min_cycle;Max_cycle;Signal;HPM_P1;HPM_P2
2022/03/13 00:00:34;;;;;;;18.42;12.88;;;8.60;94.60;;;;;;5070747;28;20042;-81
2022/03/13 00:03:02;;;;;;;21.05;14.23;;;8.60;95.00;;;;;;5054245;28;20078;-80
2022/03/13 00:05:28;;;;;;;21.35;15.18;;;8.50;94.60;;;;;;5070724;28;20040;-81
2022/03/13 00:07:56;;;;;;;20.50;14.57;;;8.50;94.70;;;;;;5071352;28;20132;-81
2022/03/13 00:10:27;;;;;;;20.25;13.68;;;8.50;95.00;;;;;;5054427;28;20085;-81
2022/03/13 00:12:54;;;;;;;20.35;14.20;;;8.50;95.00;;;;;;5070713;28;20055;-81
2022/03/13 00:15:38;;;;;;;20.48;14.15;;;8.50;95.30;;;;;;5070465;28;20040;-81
2022/03/13 00:18:04;;;;;;;22.25;14.88;;;8.40;95.40;;;;;;5054209;28;20072;-80
2022/03/13 00:20:31;;;;;;;20.95;13.52;;;8.40;95.10;;;;;;5070779;28;20051;-81
2022/03/13 00:22:57;;;;;;;19.15;14.63;;;8.40;95.20;;;;;;5070357;28;20032;-80
2022/03/13 00:25:24;;;;;;;19.98;14.30;;;8.40;95.40;;;;;;5054636;28;20168;-81
2022/03/13 00:27:49;;;;;;;18.80;14.02;;;8.40;95.40;;;;;;5033720;28;20383;-81
2022/03/13 00:30:16;;;;;;;24.55;15.02;;;8.30;95.50;;;;;;5050074;28;20044;-81
2022/03/13 00:32:42;;;;;;;20.67;15.00;;;8.30;95.60;;;;;;5049907;28;20406;-81
2022/03/13 00:35:08;;;;;;;20.85;14.98;;;8.30;95.70;;;;;;5050031;28;20048;-81
2022/03/13 00:37:33;;;;;;;23.02;14.35;;;8.30;95.80;;;;;;5050164;28;20037;-81
2022/03/13 00:40:00;;;;;;;20.40;14.05;;;8.30;95.70;;;;;;5051597;28;20036;-80
2022/03/13 00:42:26;;;;;;;22.58;14.75;;;8.30;96.00;;;;;;5050346;28;20045;-81
2022/03/13 00:44:51;;;;;;;20.30;13.55;;;8.20;96.30;;;;;;5049843;28;20491;-81
2022/03/13 00:47:19;;;;;;;20.52;14.75;;;8.20;96.00;;;;;;5050097;28;20091;-81
2022/03/13 00:49:46;;;;;;;20.85;14.73;;;8.20;96.30;;;;;;5033571;28;20045;-81
2022/03/13 00:52:11;;;;;;;23.55;14.70;;;8.20;96.20;;;;;;5050144;28;20051;-81
2022/03/13 00:54:37;;;;;;;20.65;14.57;;;8.20;96.40;;;;;;5059478;28;20044;-81
2022/03/13 00:57:03;;;;;;;19.33;14.63;;;8.20;96.50;;;;;;5053416;28;20078;-80
2022/03/13 00:59:28;;;;;;;20.88;14.98;;;8.20;96.50;;;;;;5069887;28;20093;-81
2022/03/13 01:01:54;;;;;;;20.80;14.95;;;8.20;96.60;;;;;;5053062;28;20052;-81
2022/03/13 01:04:19;;;;;;;22.30;15.35;;;8.20;96.50;;;;;;5052849;28;20109;-80
2022/03/13 01:06:46;;;;;;;21.17;14.68;;;8.10;96.60;;;;;;5069829;28;20079;-80
2022/03/13 01:09:12;;;;;;;23.00;14.98;;;8.10;96.90;;;;;;5069860;28;20047;-80
2022/03/13 01:11:37;;;;;;;21.35;14.52;;;8.10;96.90;;;;;;5069574;28;20048;-80
2022/03/13 01:14:04;;;;;;;23.63;14.40;;;8.10;97.00;;;;;;5062053;28;20496;-80
2022/03/13 01:16:35;;;;;;;21.08;15.45;;;8.00;97.10;;;;;;5032916;28;20081;-80
2022/03/13 01:19:00;;;;;;;19.73;14.68;;;8.00;97.10;;;;;;5049889;28;20044;-80
2022/03/13 01:21:27;;;;;;;20.65;15.40;;;8.00;97.10;;;;;;5033126;28;20037;-80
2022/03/13 01:23:58;;;;;;;20.63;15.18;;;8.00;97.30;;;;;;5049415;28;20110;-81
2022/03/13 01:26:24;;;;;;;21.23;14.00;;;7.90;97.50;;;;;;5049455;28;20033;-80
2022/03/13 01:28:51;;;;;;;22.65;14.35;;;7.90;97.50;;;;;;5049660;28;20383;-80
2022/03/13 01:31:21;;;;;;;18.40;14.23;;;7.80;97.90;;;;;;5049859;28;20517;-81
2022/03/13 01:33:46;;;;;;;21.27;14.95;;;7.80;98.20;;;;;;5049269;28;20108;-80
2022/03/13 01:36:13;;;;;;;21.75;15.13;;;7.80;98.20;;;;;;5049446;28;20561;-81
2022/03/13 01:38:39;;;;;;;20.58;14.02;;;7.80;98.40;;;;;;5033141;28;20037;-80
2022/03/13 01:41:05;;;;;;;21.20;14.40;;;7.80;98.50;;;;;;5049076;28;20099;-81
2022/03/13 01:43:35;;;;;;;20.15;15.30;;;7.80;98.50;;;;;;5049376;28;20524;-81
2022/03/13 01:46:02;;;;;;;20.95;14.95;;;7.80;98.60;;;;;;5031554;28;20049;-81
2022/03/13 01:48:29;;;;;;;20.60;15.30;;;7.80;98.40;;;;;;5049608;28;20044;-81
2022/03/13 01:50:55;;;;;;;20.95;14.48;;;7.80;98.60;;;;;;5049417;28;20094;-81
2022/03/13 01:53:21;;;;;;;22.40;14.88;;;7.80;98.70;;;;;;5030954;28;20049;-80
2022/03/13 01:55:48;;;;;;;21.08;14.30;;;7.80;98.60;;;;;;5048866;28;20047;-80
2022/03/13 01:58:15;;;;;;;20.15;14.63;;;7.90;98.80;;;;;;5032855;28;20086;-80
2022/03/13 02:00:41;;;;;;;20.63;14.43;;;7.90;98.80;;;;;;5049404;28;20552;-81
2022/03/13 02:03:06;;;;;;;22.58;14.05;;;7.80;98.70;;;;;;5049200;28;20037;-81
2022/03/13 02:05:34;;;;;;;21.38;14.55;;;7.90;98.80;;;;;;5049419;28;20487;-81
2022/03/13 02:08:11;;;;;;;19.88;14.88;;;7.90;98.80;;;;;;5049127;28;20052;-81
2022/03/13 02:10:37;;;;;;;23.60;14.98;;;7.90;98.90;;;;;;5049371;28;20041;-81
2022/03/13 02:13:02;;;;;;;19.60;14.18;;;7.90;98.70;;;;;;5048775;28;20090;-81
2022/03/13 02:15:31;;;;;;;19.98;13.75;;;7.90;98.70;;;;;;5032502;28;20174;-81
2022/03/13 02:17:59;;;;;;;20.77;13.75;;;7.90;98.60;;;;;;5049267;28;20041;-81
2022/03/13 02:20:26;;;;;;;20.27;14.25;;;7.90;98.60;;;;;;5049596;28;20041;-80
2022/03/13 02:22:58;;;;;;;23.52;15.13;;;7.90;98.70;;;;;;5052878;28;20044;-81
2022/03/13 02:25:24;;;;;;;21.63;14.63;;;7.90;98.70;;;;;;5052815;28;20045;-81
2022/03/13 02:27:50;;;;;;;20.17;14.75;;;7.90;98.70;;;;;;5052754;28;20049;-80
2022/03/13 02:30:21;;;;;;;21.05;13.75;;;7.90;98.70;;;;;;5052816;28;20510;-81
2022/03/13 02:32:47;;;;;;;19.80;13.57;;;7.90;98.80;;;;;;5052403;28;20045;-81
2022/03/13 02:35:12;;;;;;;18.02;12.77;;;7.90;98.70;;;;;;5052231;28;20133;-81
2022/03/13 02:37:40;;;;;;;21.48;14.48;;;7.80;98.60;;;;;;5052519;28;20041;-81
2022/03/13 02:40:13;;;;;;;21.40;14.60;;;7.80;98.70;;;;;;5035711;28;20045;-81
2022/03/13 02:42:38;;;;;;;19.50;13.38;;;7.80;98.70;;;;;;5052735;28;20397;-80
2022/03/13 02:45:04;;;;;;;19.85;14.20;;;7.80;98.70;;;;;;5052336;28;20497;-81
2022/03/13 02:47:30;;;;;;;21.15;15.35;;;7.80;98.70;;;;;;5035684;28;20123;-81
2022/03/13 02:49:55;;;;;;;19.75;12.82;;;7.80;99.10;;;;;;5052608;28;20076;-81
2022/03/13 02:52:21;;;;;;;20.63;13.82;;;7.80;98.80;;;;;;5035346;28;20571;-81
2022/03/13 02:54:47;;;;;;;19.80;13.60;;;7.80;98.80;;;;;;5050892;28;20047;-81
2022/03/13 02:57:14;;;;;;;22.90;14.38;;;7.70;98.90;;;;;;5052096;28;20033;-80
2022/03/13 02:59:40;;;;;;;21.75;13.65;;;7.70;98.90;;;;;;5052413;28;20127;-81
2022/03/13 03:02:06;;;;;;;21.30;14.10;;;7.70;98.90;;;;;;5052040;28;20068;-81
2022/03/13 03:04:31;;;;;;;21.80;14.77;;;7.70;98.90;;;;;;5034992;28;20098;-81
2022/03/13 03:07:03;;;;;;;19.77;14.20;;;7.60;98.90;;;;;;5052332;28;20037;-80
2022/03/13 03:09:31;;;;;;;20.33;14.50;;;7.60;98.90;;;;;;5051987;28;20041;-81
2022/03/13 03:12:04;;;;;;;22.98;14.40;;;7.60;98.90;;;;;;5052141;28;20128;-81
2022/03/13 03:14:30;;;;;;;20.17;14.77;;;7.60;99.10;;;;;;5051415;28;20052;-81
2022/03/13 03:16:57;;;;;;;21.70;14.05;;;7.50;99.10;;;;;;5051755;28;20442;-81
2022/03/13 03:19:23;;;;;;;22.13;14.18;;;7.50;99.20;;;;;;5051981;28;20044;-80
2022/03/13 03:21:49;;;;;;;23.42;14.70;;;7.50;99.20;;;;;;5051884;28;20040;-81
2022/03/13 03:24:19;;;;;;;19.73;13.38;;;7.40;99.00;;;;;;5051472;28;20490;-81
2022/03/13 03:26:45;;;;;;;21.38;15.15;;;7.40;99.10;;;;;;5051584;28;20049;-81
2022/03/13 03:29:12;;;;;;;22.85;15.52;;;7.40;99.30;;;;;;5051730;28;20044;-80
2022/03/13 03:31:46;;;;;;;20.65;14.85;;;7.30;99.30;;;;;;5051266;28;20045;-81
2022/03/13 03:34:17;;;;;;;22.00;14.65;;;7.30;99.50;;;;;;5033824;28;20513;-81
2022/03/13 03:36:48;;;;;;;24.27;15.27;;;7.20;99.50;;;;;;5051789;28;20127;-81
2022/03/13 03:39:16;;;;;;;24.13;15.98;;;7.20;99.60;;;;;;5052746;28;20055;-81
2022/03/13 03:41:46;;;;;;;22.83;14.75;;;7.10;99.40;;;;;;5051563;28;20084;-80
2022/03/13 03:44:13;;;;;;;19.38;14.00;;;7.10;99.40;;;;;;5050933;28;20071;-81
2022/03/13 03:46:41;;;;;;;21.17;14.57;;;7.00;99.30;;;;;;5051308;28;20049;-80
2022/03/13 03:49:07;;;;;;;21.77;14.75;;;7.00;99.50;;;;;;5051381;28;20041;-81
2022/03/13 03:51:33;;;;;;;20.77;14.63;;;7.00;99.60;;;;;;5051314;28;20051;-81
2022/03/13 03:53:59;;;;;;;20.88;14.45;;;6.90;99.70;;;;;;5049648;28;20799;-80
2022/03/13 03:56:25;;;;;;;24.73;15.18;;;6.90;99.80;;;;;;5050777;28;20127;-81
2022/03/13 03:58:51;;;;;;;21.48;14.45;;;6.80;99.80;;;;;;5051061;28;20120;-81
2022/03/13 04:01:17;;;;;;;21.83;14.30;;;6.80;99.90;;;;;;5051063;28;20037;-80
2022/03/13 04:03:42;;;;;;;20.85;14.30;;;6.80;99.80;;;;;;5050751;28;20402;-80
2022/03/13 04:06:08;;;;;;;20.13;13.63;;;6.70;99.70;;;;;;5034598;28;20051;-80
2022/03/13 04:08:33;;;;;;;20.27;14.57;;;6.70;99.70;;;;;;5034543;28;20041;-80
2022/03/13 04:11:00;;;;;;;21.58;14.13;;;6.70;99.70;;;;;;5050626;28;20040;-80
2022/03/13 04:13:28;;;;;;;21.60;14.55;;;6.60;99.70;;;;;;5050255;28;20517;-80
2022/03/13 04:15:53;;;;;;;21.73;13.82;;;6.60;99.80;;;;;;5034053;28;20037;-80
2022/03/13 04:18:19;;;;;;;20.27;14.32;;;6.60;99.70;;;;;;5050592;28;20128;-80
2022/03/13 04:20:45;;;;;;;19.17;13.43;;;6.50;99.80;;;;;;5050747;28;20131;-80
2022/03/13 04:23:10;;;;;;;22.23;14.98;;;6.50;99.70;;;;;;5050830;28;20063;-80
2022/03/13 04:25:37;;;;;;;20.80;13.18;;;6.50;99.70;;;;;;5050422;28;20048;-80
2022/03/13 04:28:10;;;;;;;20.70;14.45;;;6.40;99.70;;;;;;5050394;28;20045;-80
2022/03/13 04:30:40;;;;;;;19.38;13.80;;;6.40;99.70;;;;;;5044690;28;20047;-77
2022/03/13 04:33:06;;;;;;;20.35;13.60;;;6.30;99.70;;;;;;5049644;28;20127;-80
2022/03/13 04:35:32;;;;;;;21.70;13.40;;;6.30;99.60;;;;;;5049994;28;20526;-79
2022/03/13 04:37:58;;;;;;;22.30;13.48;;;6.30;99.70;;;;;;5033331;28;20048;-80
2022/03/13 04:40:24;;;;;;;22.55;14.65;;;6.20;99.70;;;;;;5046725;28;20040;-79
2022/03/13 04:42:50;;;;;;;20.80;13.82;;;6.10;99.60;;;;;;5050342;28;20540;-80
2022/03/13 04:45:16;;;;;;;21.10;13.63;;;6.10;99.60;;;;;;5049906;28;20414;-79
2022/03/13 04:47:42;;;;;;;22.02;13.85;;;6.00;99.60;;;;;;5050486;28;20098;-79
2022/03/13 04:50:08;;;;;;;19.65;13.32;;;6.00;99.80;;;;;;5050343;28;20119;-80
2022/03/13 04:52:33;;;;;;;22.65;14.52;;;6.00;99.50;;;;;;5050298;28;20517;-80
2022/03/13 04:54:59;;;;;;;22.02;14.10;;;6.00;99.70;;;;;;5062736;28;20071;-80
2022/03/13 04:57:24;;;;;;;22.88;13.82;;;5.90;99.60;;;;;;5069777;28;20032;-80
2022/03/13 04:59:50;;;;;;;20.10;14.20;;;5.90;99.70;;;;;;5070237;28;20044;-80
2022/03/13 05:02:16;;;;;;;19.90;14.23;;;5.90;99.70;;;;;;5069870;28;20123;-80
2022/03/13 05:04:43;;;;;;;22.40;14.18;;;5.90;99.60;;;;;;5069828;28;20102;-80
2022/03/13 05:07:09;;;;;;;18.77;12.52;;;5.80;99.70;;;;;;5069845;28;20047;-80
2022/03/13 05:09:35;;;;;;;22.13;12.93;;;5.80;99.70;;;;;;5070300;28;20055;-80
2022/03/13 05:12:04;;;;;;;19.30;13.40;;;5.80;99.60;;;;;;5070106;28;20063;-80
2022/03/13 05:14:30;;;;;;;20.25;13.70;;;5.80;99.70;;;;;;5069685;28;20091;-80
2022/03/13 05:16:56;;;;;;;22.38;13.00;;;5.80;99.60;;;;;;5069747;28;20509;-80
2022/03/13 05:19:22;;;;;;;19.92;12.77;;;5.70;99.70;;;;;;5069827;28;20088;-80
2022/03/13 05:21:47;;;;;;;19.85;14.00;;;5.70;99.70;;;;;;5069754;28;20080;-80
2022/03/13 05:24:13;;;;;;;18.52;12.52;;;5.70;99.70;;;;;;5069508;28;20044;-80
2022/03/13 05:26:39;;;;;;;20.27;12.63;;;5.70;99.70;;;;;;5069926;28;20032;-80
2022/03/13 05:29:04;;;;;;;20.27;13.43;;;5.70;99.60;;;;;;5069760;28;20032;-80
2022/03/13 05:31:30;;;;;;;21.15;12.85;;;5.70;99.70;;;;;;5069656;28;20086;-80
2022/03/13 05:33:55;;;;;;;20.17;13.38;;;5.70;99.70;;;;;;5069257;28;20401;-80
2022/03/13 05:36:22;;;;;;;18.52;12.52;;;5.60;99.50;;;;;;5069524;28;20033;-80
2022/03/13 05:38:47;;;;;;;19.23;12.23;;;5.60;99.40;;;;;;5069496;28;20048;-80
2022/03/13 05:41:13;;;;;;;18.83;12.73;;;5.60;99.40;;;;;;5069699;28;20634;-80
2022/03/13 05:43:42;;;;;;;20.48;12.45;;;5.50;99.30;;;;;;5069499;28;20048;-80
2022/03/13 05:46:08;;;;;;;18.83;12.70;;;5.50;99.40;;;;;;5070020;28;20093;-80
2022/03/13 05:48:34;;;;;;;18.30;12.50;;;5.50;99.40;;;;;;5069817;28;20127;-80
2022/03/13 05:51:00;;;;;;;18.20;12.18;;;5.50;99.70;;;;;;5052907;28;20129;-80
2022/03/13 05:53:25;;;;;;;20.70;13.15;;;5.50;99.70;;;;;;5039793;28;20045;-80
2022/03/13 05:55:52;;;;;;;21.58;13.55;;;5.50;99.80;;;;;;5050226;28;20376;-80
2022/03/13 05:58:18;;;;;;;18.00;12.07;;;5.50;99.80;;;;;;5036721;28;20040;-80
2022/03/13 06:00:44;;;;;;;20.73;12.90;;;5.50;99.80;;;;;;5037062;28;20052;-80
2022/03/13 06:03:09;;;;;;;21.20;13.00;;;5.40;99.80;;;;;;5053059;28;20398;-80
2022/03/13 06:05:37;;;;;;;21.08;13.85;;;5.50;99.80;;;;;;5052981;28;20049;-80
2022/03/13 06:08:04;;;;;;;20.90;13.32;;;5.50;99.80;;;;;;5053237;28;20040;-80
2022/03/13 06:10:29;;;;;;;20.85;13.10;;;5.50;99.80;;;;;;5053021;28;20503;-80
2022/03/13 06:12:55;;;;;;;19.55;12.52;;;5.50;99.70;;;;;;5053345;28;20045;-80
2022/03/13 06:15:22;;;;;;;20.33;13.80;;;5.60;99.70;;;;;;5050681;28;20566;-79
2022/03/13 06:17:48;;;;;;;18.90;12.85;;;5.60;99.80;;;;;;5050921;28;20040;-80
2022/03/13 06:20:16;;;;;;;19.45;12.57;;;5.60;99.70;;;;;;5035572;28;20040;-80
2022/03/13 06:22:45;;;;;;;20.17;13.40;;;5.60;99.70;;;;;;5052027;28;20048;-80
2022/03/13 06:25:12;;;;;;;19.17;12.30;;;5.60;99.70;;;;;;5052406;28;20410;-80
2022/03/13 06:27:38;;;;;;;20.65;13.23;;;5.70;99.70;;;;;;5052007;28;20468;-81
2022/03/13 06:30:13;;;;;;;20.85;12.80;;;5.70;99.60;;;;;;5051928;28;20521;-80
2022/03/13 06:32:50;;;;;;;20.67;13.45;;;5.70;99.60;;;;;;5051991;28;20528;-81
2022/03/13 06:35:17;;;;;;;20.90;13.57;;;5.80;99.60;;;;;;5035342;28;20049;-80
2022/03/13 06:37:43;;;;;;;20.75;13.55;;;5.80;99.70;;;;;;5051878;28;20442;-80
2022/03/13 06:40:10;;;;;;;19.67;12.70;;;5.80;99.60;;;;;;5052107;28;20041;-81
2022/03/13 06:42:37;;;;;;;19.80;12.52;;;5.90;99.50;;;;;;5051978;28;20032;-81
2022/03/13 06:45:03;;;;;;;19.80;12.73;;;5.90;99.40;;;;;;5051610;28;20037;-81
2022/03/13 06:47:29;;;;;;;20.23;13.25;;;5.90;99.40;;;;;;5051779;28;20124;-81
2022/03/13 06:49:55;;;;;;;19.15;13.05;;;6.00;99.40;;;;;;5035362;28;20175;-81
2022/03/13 06:52:20;;;;;;;20.92;12.98;;;6.00;99.30;;;;;;5052323;28;20094;-81
2022/03/13 06:54:46;;;;;;;18.88;12.43;;;6.10;99.30;;;;;;5061285;28;20036;-81
2022/03/13 06:57:14;;;;;;;19.73;12.65;;;6.10;99.40;;;;;;5032022;28;20040;-81
2022/03/13 06:59:43;;;;;;;18.48;12.35;;;6.20;99.40;;;;;;5035026;28;20083;-81
2022/03/13 07:02:10;;;;;;;17.63;12.00;;;6.30;99.30;;;;;;5051200;28;20112;-81
2022/03/13 07:04:36;;;;;;;17.13;11.27;;;6.30;99.30;;;;;;5051087;28;20060;-81
2022/03/13 07:07:01;;;;;;;18.40;11.30;;;6.40;99.10;;;;;;5051180;28;20025;-81
2022/03/13 07:09:27;;;;;;;19.70;12.70;;;6.40;98.80;;;;;;5051502;28;20498;-81
2022/03/13 07:11:53;;;;;;;18.48;12.32;;;6.50;98.60;;;;;;5052066;28;20037;-81
2022/03/13 07:14:20;;;;;;;19.80;12.38;;;6.50;98.50;;;;;;5051112;28;20512;-80
2022/03/13 07:16:46;;;;;;;19.83;11.75;;;6.60;98.50;;;;;;5034871;28;20041;-80
2022/03/13 07:19:11;;;;;;;18.75;11.98;;;6.60;98.30;;;;;;5051340;28;20055;-80
2022/03/13 07:21:38;;;;;;;18.80;12.13;;;6.60;98.30;;;;;;5051399;28;20068;-80
2022/03/13 07:24:04;;;;;;;18.27;11.70;;;6.70;98.10;;;;;;5034241;28;20090;-80
2022/03/13 07:26:30;;;;;;;18.17;12.02;;;6.70;97.80;;;;;;5051679;28;20091;-81
2022/03/13 07:28:56;;;;;;;17.42;12.07;;;6.80;97.60;;;;;;5034500;28;20413;-80
2022/03/13 07:31:21;;;;;;;19.15;12.35;;;6.80;97.40;;;;;;5050805;28;20037;-80
2022/03/13 07:33:47;;;;;;;20.60;12.68;;;6.90;97.20;;;;;;5050752;28;20051;-80
2022/03/13 07:36:13;;;;;;;18.10;11.55;;;7.00;97.10;;;;;;5049531;28;20033;-80
2022/03/13 07:38:39;;;;;;;17.48;11.20;;;7.00;97.00;;;;;;5034294;28;20047;-81
2022/03/13 07:41:05;;;;;;;16.90;11.07;;;7.10;96.80;;;;;;5050946;28;20036;-81
2022/03/13 07:43:31;;;;;;;15.48;11.25;;;7.10;96.40;;;;;;5050604;28;20091;-80
2022/03/13 07:45:57;;;;;;;16.60;10.88;;;7.30;96.10;;;;;;5050697;28;20040;-81
2022/03/13 07:48:23;;;;;;;16.70;10.75;;;7.30;96.00;;;;;;5051105;28;20135;-81
2022/03/13 07:50:48;;;;;;;20.15;11.57;;;7.40;95.30;;;;;;5051295;28;20108;-81
2022/03/13 07:53:15;;;;;;;17.00;11.38;;;7.50;94.70;;;;;;5050943;28;20080;-81
2022/03/13 07:55:41;;;;;;;17.30;11.32;;;7.60;94.30;;;;;;5068198;28;20055;-81
2022/03/13 07:58:07;;;;;;;16.60;10.43;;;7.70;93.90;;;;;;5070616;28;20043;-81
2022/03/13 08:00:32;;;;;;;15.43;9.95;;;7.80;93.40;;;;;;5070569;28;20036;-81
2022/03/13 08:02:58;;;;;;;16.38;10.77;;;7.90;92.80;;;;;;5070044;28;20123;-81
2022/03/13 08:05:24;;;;;;;18.10;11.43;;;8.00;92.50;;;;;;5070189;28;20044;-81
2022/03/13 08:07:52;;;;;;;17.45;11.82;;;8.10;91.60;;;;;;5054031;28;20422;-81
2022/03/13 08:10:20;;;;;;;18.58;11.38;;;8.20;91.40;;;;;;5070915;28;20493;-81
2022/03/13 08:12:47;;;;;;;18.80;11.65;;;8.30;90.80;;;;;;5070739;28;20460;-80
2022/03/13 08:15:13;;;;;;;18.48;12.07;;;8.30;90.60;;;;;;5070006;28;20047;-80
2022/03/13 08:17:39;;;;;;;19.10;10.65;;;8.40;90.50;;;;;;5052603;28;20033;-80
2022/03/13 08:20:05;;;;;;;16.85;10.82;;;8.40;90.20;;;;;;5070181;28;20093;-80
2022/03/13 08:22:31;;;;;;;18.42;11.40;;;8.40;90.10;;;;;;5053376;28;20036;-80
2022/03/13 08:24:57;;;;;;;17.90;11.05;;;8.40;90.10;;;;;;5069864;28;20051;-80
2022/03/13 08:27:23;;;;;;;16.42;10.95;;;8.50;89.40;;;;;;5070359;28;20071;-80
2022/03/13 08:29:49;;;;;;;20.15;12.32;;;8.50;88.60;;;;;;5070403;28;20051;-80
2022/03/13 08:32:16;;;;;;;18.13;11.48;;;8.60;88.10;;;;;;5070721;28;20044;-81
2022/03/13 08:34:42;;;;;;;20.52;11.77;;;8.60;88.20;;;;;;5070091;28;20452;-81
2022/03/13 08:37:09;;;;;;;15.60;10.85;;;8.70;87.20;;;;;;5070352;28;20496;-81
2022/03/13 08:39:35;;;;;;;16.05;9.88;;;8.70;86.10;;;;;;5070046;28;20095;-82
2022/03/13 08:42:01;;;;;;;16.67;10.80;;;8.80;85.70;;;;;;5042821;28;20037;-82
2022/03/13 08:44:27;;;;;;;18.00;11.35;;;8.90;85.00;;;;;;5049589;28;20045;-81
2022/03/13 08:46:52;;;;;;;16.50;10.77;;;9.00;83.70;;;;;;5050223;28;20540;-82
2022/03/13 08:49:18;;;;;;;15.80;10.88;;;9.10;82.20;;;;;;5049670;28;20045;-81
2022/03/13 08:51:44;;;;;;;17.58;11.25;;;9.20;82.00;;;;;;5049754;28;20123;-82
2022/03/13 08:54:09;;;;;;;16.75;11.55;;;9.40;82.10;;;;;;5031974;28;20068;-81
2022/03/13 08:56:35;;;;;;;18.63;11.05;;;9.50;81.30;;;;;;5050302;28;20136;-81
2022/03/13 08:59:02;;;;;;;14.98;11.05;;;9.60;80.60;;;;;;5033220;28;20029;-81
2022/03/13 09:01:28;;;;;;;17.45;11.45;;;9.80;79.80;;;;;;5048251;28;20044;-81
2022/03/13 09:03:54;;;;;;;19.20;12.07;;;9.90;79.10;;;;;;5048229;28;20037;-81
2022/03/13 09:06:19;;;;;;;18.27;11.73;;;10.00;78.90;;;;;;5033798;28;20044;-81
2022/03/13 09:08:45;;;;;;;16.50;11.25;;;10.20;78.60;;;;;;5033449;28;20458;-81
2022/03/13 09:11:11;;;;;;;17.45;11.50;;;10.30;77.40;;;;;;5049731;28;20394;-81
2022/03/13 09:13:37;;;;;;;16.02;11.60;;;10.40;77.50;;;;;;5049501;28;20565;-81
2022/03/13 09:16:03;;;;;;;16.20;11.57;;;10.50;76.10;;;;;;5049129;28;20073;-81
2022/03/13 09:18:30;;;;;;;15.77;11.50;;;10.60;76.20;;;;;;5033163;28;20118;-81
2022/03/13 09:20:56;;;;;;;18.15;11.20;;;10.70;75.40;;;;;;5049867;28;20413;-81
2022/03/13 09:23:23;;;;;;;17.55;11.55;;;10.80;74.20;;;;;;5033317;28;20122;-81
2022/03/13 09:25:50;;;;;;;16.27;11.20;;;10.90;73.80;;;;;;5049238;28;20045;-81
2022/03/13 09:28:16;;;;;;;15.75;11.23;;;11.00;73.80;;;;;;5049886;28;20057;-81
2022/03/13 09:30:42;;;;;;;16.02;11.68;;;11.10;73.30;;;;;;5050484;28;20044;-81
2022/03/13 09:33:07;;;;;;;16.92;11.55;;;11.20;71.50;;;;;;5037228;28;20042;-81
2022/03/13 09:35:33;;;;;;;16.30;11.82;;;11.30;71.50;;;;;;5053133;28;20564;-81
2022/03/13 09:37:58;;;;;;;15.85;11.57;;;11.40;71.40;;;;;;5053295;28;20068;-81
2022/03/13 09:40:26;;;;;;;16.35;12.02;;;11.60;71.40;;;;;;5053628;28;20043;-81
2022/03/13 09:42:52;;;;;;;17.50;11.70;;;11.70;70.60;;;;;;5036936;28;20040;-81
2022/03/13 09:45:18;;;;;;;14.77;10.98;;;11.90;68.80;;;;;;5053595;28;20394;-81
2022/03/13 09:47:44;;;;;;;16.63;11.57;;;12.10;67.50;;;;;;5053463;28;20498;-81
2022/03/13 09:50:12;;;;;;;16.50;11.65;;;12.20;65.90;;;;;;5053729;28;20076;-81
2022/03/13 09:52:40;;;;;;;16.45;11.48;;;12.30;65.10;;;;;;5052529;28;20049;-81
2022/03/13 09:55:08;;;;;;;17.52;12.25;;;12.40;64.60;;;;;;5052900;28;20117;-81
2022/03/13 09:57:36;;;;;;;15.90;11.70;;;12.60;63.30;;;;;;5053522;28;20047;-81
2022/03/13 10:00:08;;;;;;;15.68;11.30;;;12.70;62.10;;;;;;5053586;28;20052;-81
2022/03/13 10:02:36;;;;;;;16.47;11.80;;;12.80;61.60;;;;;;5053195;28;20077;-81
2022/03/13 10:05:10;;;;;;;17.00;12.55;;;12.90;61.40;;;;;;5052896;28;20041;-81
2022/03/13 10:07:51;;;;;;;15.70;12.18;;;12.90;60.00;;;;;;5036366;28;20045;-81
2022/03/13 10:10:17;;;;;;;15.00;11.40;;;12.90;60.00;;;;;;5053607;28;20102;-81
2022/03/13 10:12:43;;;;;;;16.05;11.60;;;12.90;59.50;;;;;;5052006;28;20052;-81
2022/03/13 10:15:09;;;;;;;16.63;11.73;;;12.90;58.80;;;;;;5051076;28;20045;-78
2022/03/13 10:17:37;;;;;;;16.65;11.60;;;12.90;59.00;;;;;;5050028;28;20087;-79
2022/03/13 10:20:15;;;;;;;16.75;11.88;;;13.00;59.00;;;;;;5053055;28;20098;-80
2022/03/13 10:22:42;;;;;;;16.42;11.32;;;13.10;58.80;;;;;;5052860;28;20045;-80
2022/03/13 10:25:08;;;;;;;18.27;11.90;;;13.20;58.60;;;;;;5053220;28;20460;-81
2022/03/13 10:27:33;;;;;;;15.77;11.52;;;13.30;58.20;;;;;;5043018;28;20044;-80
2022/03/13 10:30:24;;;;;;;15.07;11.45;;;13.40;57.60;;;;;;5073456;28;20051;-80
2022/03/13 10:32:57;;;;;;;16.48;12.55;;;13.50;56.70;;;;;;4995718;28;20092;-81
2022/03/13 10:35:22;;;;;;;15.32;11.48;;;13.60;57.50;;;;;;4995064;28;20054;-80
2022/03/13 10:37:48;;;;;;;15.10;12.05;;;13.70;57.40;;;;;;4995471;28;20053;-81
2022/03/13 10:40:14;;;;;;;14.80;11.30;;;13.70;56.90;;;;;;4995350;28;20612;-81
2022/03/13 10:42:43;;;;;;;15.95;11.93;;;13.80;56.30;;;;;;4994482;28;20188;-82
2022/03/13 10:45:09;;;;;;;17.10;12.32;;;13.90;56.00;;;;;;4995397;28;20508;-82
2022/03/13 10:47:34;;;;;;;19.50;12.00;;;13.90;56.30;;;;;;4995240;28;20132;-82
2022/03/13 10:50:00;;;;;;;17.02;12.55;;;14.00;55.70;;;;;;5011706;28;20181;-81
2022/03/13 10:52:31;;;;;;;16.55;11.48;;;14.10;55.60;;;;;;5011059;28;20419;-80
2022/03/13 10:55:16;;;;;;;16.20;12.40;;;14.10;54.20;;;;;;4989283;28;20784;-81
2022/03/13 10:57:52;;;;;;;16.90;12.27;;;14.10;54.50;;;;;;5010789;28;20065;-82
2022/03/13 11:00:18;;;;;;;16.80;12.45;;;14.10;54.40;;;;;;4994617;28;20038;-81
2022/03/13 11:02:44;;;;;;;15.65;12.38;;;14.10;55.20;;;;;;4994768;28;20054;-82
2022/03/13 11:05:10;;;;;;;16.30;11.68;;;14.20;55.30;;;;;;4978468;28;20462;-81
2022/03/13 11:07:36;;;;;;;15.85;12.35;;;14.30;54.40;;;;;;4977687;28;20128;-81
2022/03/13 11:10:05;;;;;;;16.50;12.98;;;14.40;54.20;;;;;;5038732;28;20056;-81
2022/03/13 11:12:32;;;;;;;18.25;12.25;;;14.50;53.80;;;;;;5054189;28;20047;-81
2022/03/13 11:15:01;;;;;;;16.55;12.07;;;14.60;54.90;;;;;;5070528;28;20050;-81
2022/03/13 11:17:33;;;;;;;15.25;11.95;;;14.70;53.30;;;;;;5071105;28;20036;-81
2022/03/13 11:20:02;;;;;;;15.70;11.85;;;14.80;53.00;;;;;;5071462;28;20048;-81
2022/03/13 11:22:29;;;;;;;15.32;12.18;;;15.00;52.00;;;;;;5071784;28;20529;-82
2022/03/13 11:25:02;;;;;;;16.73;12.55;;;15.10;51.90;;;;;;5054662;28;20055;-81
2022/03/13 11:27:30;;;;;;;16.90;13.05;;;15.20;51.80;;;;;;5071714;28;20127;-81
2022/03/13 11:29:57;;;;;;;16.50;12.30;;;15.40;50.80;;;;;;5054631;28;20514;-81
2022/03/13 11:32:40;;;;;;;15.77;11.98;;;15.60;50.80;;;;;;5071387;28;20044;-81
2022/03/13 11:35:18;;;;;;;16.38;12.27;;;15.80;49.90;;;;;;5054172;28;20151;-81
2022/03/13 11:37:51;;;;;;;16.73;12.73;;;15.90;49.80;;;;;;5054613;28;20044;-82
2022/03/13 11:40:29;;;;;;;14.68;12.00;;;16.10;49.70;;;;;;5071472;28;20383;-82
2022/03/13 11:43:12;;;;;;;14.88;12.02;;;16.30;49.00;;;;;;5071278;28;20543;-82
2022/03/13 11:45:47;;;;;;;17.92;12.27;;;16.50;48.90;;;;;;5070882;28;20113;-82
2022/03/13 11:48:22;;;;;;;17.30;13.15;;;16.70;48.40;;;;;;5071364;28;20040;-82
2022/03/13 11:50:47;;;;;;;16.08;12.35;;;16.90;47.50;;;;;;5071387;28;20043;-82
2022/03/13 11:53:18;;;;;;;15.05;11.90;;;17.10;46.30;;;;;;5069885;28;20249;-82
2022/03/13 11:56:02;;;;;;;15.05;11.60;;;17.20;46.30;;;;;;5052064;28;20052;-81
2022/03/13 11:58:49;;;;;;;15.10;12.38;;;17.40;45.40;;;;;;5070461;28;20489;-82
2022/03/13 12:01:18;;;;;;;15.20;12.10;;;17.60;45.90;;;;;;5071015;28;20041;-82
2022/03/13 12:04:03;;;;;;;16.95;12.52;;;17.80;45.80;;;;;;5071143;28;20402;-82
2022/03/13 12:06:46;;;;;;;19.27;12.30;;;18.00;44.30;;;;;;5070766;28;20048;-82
2022/03/13 12:09:16;;;;;;;17.65;12.27;;;18.10;43.70;;;;;;5071136;28;20084;-82
2022/03/13 12:11:45;;;;;;;15.82;11.48;;;18.20;43.90;;;;;;5071021;28;20045;-82
2022/03/13 12:14:13;;;;;;;16.25;12.25;;;18.40;44.10;;;;;;5064853;28;20041;-82
2022/03/13 12:16:41;;;;;;;15.32;11.73;;;18.60;43.80;;;;;;5033219;28;20155;-82
2022/03/13 12:19:08;;;;;;;16.05;12.13;;;18.80;42.90;;;;;;5050544;28;20174;-82
2022/03/13 12:21:34;;;;;;;15.43;11.43;;;18.90;41.90;;;;;;5050688;28;20075;-82
2022/03/13 12:24:17;;;;;;;14.98;12.27;;;19.00;41.50;;;;;;5050396;28;20091;-82
2022/03/13 12:26:43;;;;;;;;;;;19.20;42.00;;;;;;5034188;28;20036;-82
2022/03/13 12:29:13;;;;;;;15.65;11.57;;;19.30;41.40;;;;;;5050396;28;20389;-82
2022/03/13 12:31:45;;;;;;;14.73;11.40;;;19.50;42.20;;;;;;5050530;28;20037;-82
2022/03/13 12:34:12;;;;;;;13.85;10.50;;;19.80;41.80;;;;;;5033717;28;20037;-82
2022/03/13 12:36:41;;;;;;;14.52;11.68;;;20.00;41.30;;;;;;5050110;28;20084;-82